Time,TemperatureF,DewpointF,PressureIn,WindDirection,WindDirectionDegrees,WindSpeedMPH,WindSpeedGustMPH,Humidity,HourlyPrecipIn,Conditions,Clouds,dailyrainin,SoftwareType,DateUTC
2013-10-06 00:07:00,69.3,65.0,29.99,NNE,24,0.0,-999.0,87,-99.99,,,0.00,weatherlink.com 1.10,2013-10-06 04:07:00,
2013-10-06 00:22:00,69.0,65.0,29.98,NNE,24,0.0,-999.0,88,-99.99,,,0.00,weatherlink.com 1.10,2013-10-06 04:22:00,
2013-10-06 00:37:00,69.0,66.0,29.98,NNE,24,0.0,-999.0,89,-99.99,,,0.00,weatherlink.com 1.10,2013-10-06 04:37:00,
2013-10-06 00:52:00,68.9,66.0,29.98,NNE,24,0.0,-999.0,89,-99.99,,,0.00,weatherlink.com 1.10,2013-10-06 04:52:00,
2013-10-06 01:07:00,68.9,66.0,29.98,NNE,24,0.0,-999.0,89,-99.99,,,0.00,weatherlink.com 1.10,2013-10-06 05:07:00,
2013-10-06 01:22:00,68.8,66.0,29.98,NNE,24,0.0,-999.0,89,-99.99,,,0.00,weatherlink.com 1.10,2013-10-06 05:22:00,
2013-10-06 01:37:00,68.7,65.0,29.98,NNE,24,0.0,-999.0,89,-99.99,,,0.00,weatherlink.com 1.10,2013-10-06 05:37:00,
2013-10-06 01:52:00,68.5,65.0,29.99,NNE,24,0.0,-999.0,89,-99.99,,,0.00,weatherlink.com 1.10,2013-10-06 05:52:00,
2013-10-06 02:07:00,68.3,65.0,29.98,NNE,24,0.0,-999.0,90,-99.99,,,0.00,weatherlink.com 1.10,2013-10-06 06:07:00,
2013-10-06 02:22:00,68.0,65.0,29.98,NNE,24,0.0,-999.0,90,-99.99,,,0.00,weatherlink.com 1.10,2013-10-06 06:22:00,
2013-10-06 02:37:00,67.8,65.0,29.98,NNE,24,0.0,-999.0,90,-99.99,,,0.00,weatherlink.com 1.10,2013-10-06 06:37:00,
2013-10-06 02:52:00,67.5,65.0,29.98,NNE,24,0.0,-999.0,90,-99.99,,,0.00,weatherlink.com 1.10,2013-10-06 06:52:00,
2013-10-06 03:08:00,67.2,64.0,29.97,NNE,24,0.0,-999.0,90,-99.99,,,0.00,weatherlink.com 1.10,2013-10-06 07:08:00,
2013-10-06 03:23:00,67.0,64.0,29.97,NNE,24,0.0,-999.0,90,-99.99,,,0.00,weatherlink.com 1.10,2013-10-06 07:23:00,
2013-10-06 03:38:00,66.7,64.0,29.97,NNE,24,0.0,-999.0,90,-99.99,,,0.00,weatherlink.com 1.10,2013-10-06 07:38:00,
2013-10-06 03:53:00,66.2,63.0,29.97,NNE,24,0.0,-999.0,90,-99.99,,,0.00,weatherlink.com 1.10,2013-10-06 07:53:00,
2013-10-06 04:08:00,65.7,63.0,29.97,NNE,24,0.0,-999.0,90,-99.99,,,0.00,weatherlink.com 1.10,2013-10-06 08:08:00,
2013-10-06 04:23:00,65.2,62.0,29.97,NNE,24,0.0,-999.0,90,-99.99,,,0.00,weatherlink.com 1.10,2013-10-06 08:23:00,
2013-10-06 04:38:00,64.9,62.0,29.97,NNE,24,0.0,-999.0,91,-99.99,,,0.00,weatherlink.com 1.10,2013-10-06 08:38:00,
2013-10-06 04:53:00,64.7,62.0,29.97,NNE,24,0.0,-999.0,91,-99.99,,,0.00,weatherlink.com 1.10,2013-10-06 08:53:00,
2013-10-06 05:08:00,64.6,62.0,29.97,NNE,24,0.0,-999.0,92,-99.99,,,0.00,weatherlink.com 1.10,2013-10-06 09:08:00,
2013-10-06 05:23:00,64.5,62.0,29.97,NNE,24,0.0,-999.0,92,-99.99,,,0.00,weatherlink.com 1.10,2013-10-06 09:23:00,
2013-10-06 05:38:00,64.2,62.0,29.97,NNE,24,0.0,-999.0,92,-99.99,,,0.00,weatherlink.com 1.10,2013-10-06 09:38:00,
2013-10-06 05:53:00,63.9,62.0,29.97,NNE,24,0.0,-999.0,92,-99.99,,,0.00,weatherlink.com 1.10,2013-10-06 09:53:00,
2013-10-06 06:08:00,63.5,61.0,29.98,NNE,24,0.0,-999.0,92,-99.99,,,0.00,weatherlink.com 1.10,2013-10-06 10:08:00,
2013-10-06 06:23:00,63.2,61.0,29.97,NNE,24,0.0,-999.0,92,-99.99,,,0.00,weatherlink.com 1.10,2013-10-06 10:23:00,
2013-10-06 06:38:00,62.8,61.0,29.97,NNE,24,0.0,-999.0,92,-99.99,,,0.00,weatherlink.com 1.10,2013-10-06 10:38:00,
2013-10-06 06:53:00,62.8,61.0,29.98,NE,51,0.0,-999.0,93,-99.99,,,0.00,weatherlink.com 1.10,2013-10-06 10:53:00,
2013-10-06 07:08:00,62.4,60.0,29.97,NE,51,0.0,-999.0,93,-99.99,,,0.00,weatherlink.com 1.10,2013-10-06 11:08:00,
2013-10-06 07:23:00,62.1,60.0,29.97,NE,51,0.0,-999.0,93,-99.99,,,0.00,weatherlink.com 1.10,2013-10-06 11:23:00,
2013-10-06 07:38:00,61.9,60.0,29.98,NE,51,0.0,-999.0,93,-99.99,,,0.00,weatherlink.com 1.10,2013-10-06 11:38:00,
2013-10-06 07:53:00,61.7,60.0,29.98,NE,51,0.0,-999.0,93,-99.99,,,0.00,weatherlink.com 1.10,2013-10-06 11:53:00,
2013-10-06 08:08:00,61.9,60.0,29.98,NE,51,0.0,-999.0,94,-99.99,,,0.00,weatherlink.com 1.10,2013-10-06 12:08:00,
2013-10-06 08:23:00,62.4,61.0,29.99,NE,51,0.0,-999.0,94,-99.99,,,0.00,weatherlink.com 1.10,2013-10-06 12:23:00,
2013-10-06 08:38:00,63.4,62.0,29.99,NE,51,0.0,-999.0,95,-99.99,,,0.00,weatherlink.com 1.10,2013-10-06 12:38:00,
2013-10-06 08:53:00,65.0,64.0,29.99,NE,51,0.0,-999.0,95,-99.99,,,0.00,weatherlink.com 1.10,2013-10-06 12:53:00,
2013-10-06 09:08:00,66.3,65.0,29.99,NE,51,0.0,-999.0,96,-99.99,,,0.00,weatherlink.com 1.10,2013-10-06 13:08:00,
2013-10-06 09:23:00,67.9,67.0,29.99,South,182,0.0,-999.0,96,-99.99,,,0.00,weatherlink.com 1.10,2013-10-06 13:23:00,
2013-10-06 09:38:00,69.2,68.0,29.99,SSW,195,0.0,-999.0,95,-99.99,,,0.00,weatherlink.com 1.10,2013-10-06 13:38:00,
2013-10-06 09:53:00,70.9,69.0,29.99,SSW,201,2.0,-999.0,92,-99.99,,,0.00,weatherlink.com 1.10,2013-10-06 13:53:00,
2013-10-06 10:08:00,73.0,68.0,29.99,SSW,202,0.0,-999.0,85,-99.99,,,0.00,weatherlink.com 1.10,2013-10-06 14:08:00,
2013-10-06 10:23:00,74.0,69.0,29.98,South,182,0.0,-999.0,83,-99.99,,,0.00,weatherlink.com 1.10,2013-10-06 14:23:00,
2013-10-06 10:38:00,75.3,68.0,29.98,SSW,211,7.0,-999.0,78,-99.99,,,0.00,weatherlink.com 1.10,2013-10-06 14:38:00,
2013-10-06 10:53:00,75.8,68.0,29.98,SSW,192,0.0,-999.0,76,-99.99,,,0.00,weatherlink.com 1.10,2013-10-06 14:53:00,
2013-10-06 11:08:00,76.7,68.0,29.98,SSW,207,4.0,-999.0,74,-99.99,,,0.00,weatherlink.com 1.10,2013-10-06 15:08:00,
2013-10-06 11:23:00,77.3,68.0,29.97,SSW,206,2.0,-999.0,73,-99.99,,,0.00,weatherlink.com 1.10,2013-10-06 15:23:00,
2013-10-06 11:38:00,78.2,68.0,29.97,SSW,200,0.0,-999.0,72,-99.99,,,0.00,weatherlink.com 1.10,2013-10-06 15:38:00,
2013-10-06 11:54:00,79.2,68.0,29.96,West,259,4.0,-999.0,69,-99.99,,,0.00,weatherlink.com 1.10,2013-10-06 15:54:00,
2013-10-06 11:55:00,79.3,67.8,29.96,South,174,2.0,5.0,68,0.00,,,0.00,Wunderground v.1.15,2013-10-06 15:55:00,
2013-10-06 12:00:00,79.4,68.3,29.96,SW,234,2.0,2.0,69,0.00,,,0.00,Wunderground v.1.15,2013-10-06 16:00:00,
2013-10-06 12:05:00,79.5,68.4,29.96,South,186,1.0,2.0,69,0.00,,,0.00,Wunderground v.1.15,2013-10-06 16:05:00,
2013-10-06 12:08:00,79.6,69.0,29.96,ENE,69,3.0,-999.0,70,-99.99,,,0.00,weatherlink.com 1.10,2013-10-06 16:08:00,
2013-10-06 12:15:00,79.8,68.7,29.96,SSW,212,1.0,1.0,69,0.00,,,0.00,Wunderground v.1.15,2013-10-06 16:15:00,
2013-10-06 12:20:00,80.0,68.5,29.96,NE,53,1.0,2.0,68,0.00,,,0.00,Wunderground v.1.15,2013-10-06 16:20:00,
2013-10-06 12:24:00,79.9,69.0,29.95,NE,48,5.0,-999.0,69,-99.99,,,0.00,weatherlink.com 1.10,2013-10-06 16:24:00,
2013-10-06 12:30:00,79.9,68.4,29.95,SSW,195,2.0,2.0,68,0.00,,,0.00,Wunderground v.1.15,2013-10-06 16:30:00,
2013-10-06 12:35:00,80.1,68.6,29.95,ENE,70,1.0,2.0,68,0.00,,,0.00,Wunderground v.1.15,2013-10-06 16:35:00,
2013-10-06 12:40:00,80.3,68.8,29.95,ENE,69,0.0,0.0,68,0.00,,,0.00,Wunderground v.1.15,2013-10-06 16:40:00,
2013-10-06 12:45:00,80.6,68.6,29.95,East,81,0.0,0.0,67,0.00,,,0.00,Wunderground v.1.15,2013-10-06 16:45:00,
2013-10-06 12:55:00,81.0,68.6,29.95,South,188,1.0,6.0,66,0.00,,,0.00,Wunderground v.1.15,2013-10-06 16:55:00,
2013-10-06 13:00:00,81.2,68.8,29.95,South,173,1.0,1.0,66,0.00,,,0.00,Wunderground v.1.15,2013-10-06 17:00:00,
2013-10-06 13:05:00,81.3,68.4,29.94,SSW,204,2.0,4.0,65,0.00,,,0.00,Wunderground v.1.15,2013-10-06 17:05:00,
2013-10-06 13:10:00,81.4,68.9,29.94,ESE,111,2.0,2.0,66,0.00,,,0.00,Wunderground v.1.15,2013-10-06 17:10:00,
2013-10-06 13:20:00,81.5,69.0,29.94,ENE,78,0.0,6.0,66,0.00,,,0.00,Wunderground v.1.15,2013-10-06 17:20:00,
2013-10-06 13:25:00,81.7,69.0,29.94,North,360,1.0,-999.0,66,-99.99,,,0.00,weatherlink.com 1.10,2013-10-06 17:25:00,
2013-10-06 13:40:00,80.8,68.0,29.93,NE,52,2.0,-999.0,66,-99.99,,,0.00,weatherlink.com 1.10,2013-10-06 17:40:00,
2013-10-06 13:55:00,79.4,68.0,29.92,NE,34,4.0,-999.0,69,-99.99,,,0.00,weatherlink.com 1.10,2013-10-06 17:55:00,
2013-10-06 14:10:00,81.1,69.0,29.92,SSE,155,0.0,-999.0,67,-99.99,,,0.00,weatherlink.com 1.10,2013-10-06 18:10:00,
2013-10-06 14:25:00,82.6,69.0,29.92,ENE,71,0.0,-999.0,64,-99.99,,,0.00,weatherlink.com 1.10,2013-10-06 18:25:00,
2013-10-06 14:40:00,83.3,69.0,29.91,ENE,69,0.0,-999.0,63,-99.99,,,0.00,weatherlink.com 1.10,2013-10-06 18:40:00,
2013-10-06 14:55:00,82.8,69.0,29.91,West,273,4.0,-999.0,64,-99.99,,,0.00,weatherlink.com 1.10,2013-10-06 18:55:00,
2013-10-06 15:10:00,82.1,69.0,29.91,ENE,76,3.0,-999.0,64,-99.99,,,0.00,weatherlink.com 1.10,2013-10-06 19:10:00,
2013-10-06 15:25:00,82.1,69.0,29.91,South,182,3.0,-999.0,65,-99.99,,,0.00,weatherlink.com 1.10,2013-10-06 19:25:00,
2013-10-06 15:40:00,82.3,69.0,29.90,SSW,192,1.0,-999.0,64,-99.99,,,0.00,weatherlink.com 1.10,2013-10-06 19:40:00,
2013-10-06 15:55:00,82.9,69.0,29.90,ENE,60,4.0,-999.0,63,-99.99,,,0.00,weatherlink.com 1.10,2013-10-06 19:55:00,
2013-10-06 16:10:00,82.8,69.0,29.90,South,180,2.0,-999.0,63,-99.99,,,0.00,weatherlink.com 1.10,2013-10-06 20:10:00,
2013-10-06 16:25:00,81.8,69.0,29.90,SSW,207,0.0,-999.0,65,-99.99,,,0.00,weatherlink.com 1.10,2013-10-06 20:25:00,
2013-10-06 16:40:00,80.0,68.0,29.90,NE,34,5.0,-999.0,67,-99.99,,,0.00,weatherlink.com 1.10,2013-10-06 20:40:00,
2013-10-06 16:55:00,77.6,68.0,29.90,ENE,57,0.0,-999.0,72,-99.99,,,0.00,weatherlink.com 1.10,2013-10-06 20:55:00,
2013-10-06 17:10:00,77.3,68.0,29.89,ENE,61,2.0,-999.0,73,-99.99,,,0.00,weatherlink.com 1.10,2013-10-06 21:10:00,
2013-10-06 17:25:00,77.1,68.0,29.89,NNE,28,3.0,-999.0,73,-99.99,,,0.00,weatherlink.com 1.10,2013-10-06 21:25:00,
2013-10-06 17:40:00,76.0,68.0,29.90,NE,40,0.0,-999.0,75,-99.99,,,0.00,weatherlink.com 1.10,2013-10-06 21:40:00,
2013-10-06 17:55:00,75.1,67.0,29.90,NE,48,3.0,-999.0,77,-99.99,,,0.00,weatherlink.com 1.10,2013-10-06 21:55:00,
2013-10-06 18:10:00,74.4,67.0,29.90,ENE,74,0.0,-999.0,78,-99.99,,,0.00,weatherlink.com 1.10,2013-10-06 22:10:00,
2013-10-06 18:25:00,73.6,67.0,29.89,NE,55,2.0,-999.0,79,-99.99,,,0.00,weatherlink.com 1.10,2013-10-06 22:25:00,
2013-10-06 18:40:00,72.8,67.0,29.90,ENE,63,0.0,-999.0,81,-99.99,,,0.00,weatherlink.com 1.10,2013-10-06 22:40:00,
2013-10-06 18:55:00,72.0,66.0,29.89,ENE,66,3.0,-999.0,82,-99.99,,,0.00,weatherlink.com 1.10,2013-10-06 22:55:00,
2013-10-06 19:10:00,71.5,67.0,29.90,NE,49,4.0,-999.0,84,-99.99,,,0.00,weatherlink.com 1.10,2013-10-06 23:10:00,
2013-10-06 19:25:00,71.2,66.0,29.90,East,80,4.0,-999.0,84,-99.99,,,0.00,weatherlink.com 1.10,2013-10-06 23:25:00,
2013-10-06 19:40:00,71.1,66.0,29.90,NE,48,3.0,-999.0,85,-99.99,,,0.00,weatherlink.com 1.10,2013-10-06 23:40:00,
2013-10-06 19:55:00,71.1,66.0,29.90,East,85,0.0,-999.0,85,-99.99,,,0.00,weatherlink.com 1.10,2013-10-06 23:55:00,
2013-10-06 20:10:00,70.9,66.0,29.90,East,96,0.0,-999.0,85,-99.99,,,0.00,weatherlink.com 1.10,2013-10-07 00:10:00,
2013-10-06 20:25:00,70.6,66.0,29.90,NE,55,0.0,-999.0,85,-99.99,,,0.00,weatherlink.com 1.10,2013-10-07 00:25:00,
2013-10-06 20:40:00,70.3,66.0,29.90,ESE,107,0.0,-999.0,86,-99.99,,,0.00,weatherlink.com 1.10,2013-10-07 00:40:00,
2013-10-06 20:55:00,70.6,67.0,29.90,ENE,69,0.0,-999.0,87,-99.99,,,0.00,weatherlink.com 1.10,2013-10-07 00:55:00,
2013-10-06 21:10:00,70.8,67.0,29.90,SSE,148,0.0,-999.0,87,-99.99,,,0.00,weatherlink.com 1.10,2013-10-07 01:10:00,
2013-10-06 21:25:00,71.5,67.0,29.89,North,11,2.0,-999.0,86,-99.99,,,0.00,weatherlink.com 1.10,2013-10-07 01:25:00,
2013-10-06 21:40:00,71.8,67.0,29.89,ENE,71,0.0,-999.0,85,-99.99,,,0.00,weatherlink.com 1.10,2013-10-07 01:40:00,
2013-10-06 21:55:00,72.1,67.0,29.90,NE,54,3.0,-999.0,84,-99.99,,,0.00,weatherlink.com 1.10,2013-10-07 01:55:00,
2013-10-06 22:10:00,72.0,67.0,29.89,ENE,65,0.0,-999.0,84,-99.99,,,0.00,weatherlink.com 1.10,2013-10-07 02:10:00,
2013-10-06 22:25:00,71.9,67.0,29.89,ENE,57,1.0,-999.0,84,-99.99,,,0.00,weatherlink.com 1.10,2013-10-07 02:25:00,
2013-10-06 22:40:00,71.9,67.0,29.89,NE,37,4.0,-999.0,83,-99.99,,,0.00,weatherlink.com 1.10,2013-10-07 02:40:00,
2013-10-06 22:55:00,71.8,66.0,29.89,SSW,209,0.0,-999.0,83,-99.99,,,0.00,weatherlink.com 1.10,2013-10-07 02:55:00,
2013-10-06 23:10:00,71.7,66.0,29.89,NE,49,0.0,-999.0,83,-99.99,,,0.00,weatherlink.com 1.10,2013-10-07 03:10:00,
2013-10-06 23:25:00,71.5,66.0,29.89,SW,234,1.0,-999.0,83,-99.99,,,0.00,weatherlink.com 1.10,2013-10-07 03:25:00,
2013-10-06 23:40:00,71.4,66.0,29.89,NE,34,3.0,-999.0,83,-99.99,,,0.00,weatherlink.com 1.10,2013-10-07 03:40:00,
2013-10-06 23:55:00,71.2,66.0,29.89,ENE,78,0.0,-999.0,83,-99.99,,,0.00,weatherlink.com 1.10,2013-10-07 03:55:00,